Time;durP1;ratioP1;P1;durP2;ratioP2;P2;SDS_P1;SDS_P2;PMS_P1;PMS_P2;Temp;Humidity;BMP_temperature;BMP_pressure;BME280_temperature;BME280_humidity;BME280_pressure;Samples;Min_cycle;Max_cycle;Signal;HPM_P1;HPM_P2
2023/03/11 00:01:15;;;;;;;;;;;;;;;-144.99;100.00;52533.69;5079655;28;20048;-73
2023/03/11 00:03:42;;;;;;;;;;;;;;;-144.99;100.00;52541.84;5083254;28;19928;-74
2023/03/11 00:06:09;;;;;;;;;;;;;;;-144.99;100.00;52505.16;5083141;28;19924;-73
2023/03/11 00:08:36;;;;;;;;;;;;;;;-144.99;100.00;52533.69;5076351;28;19925;-75
2023/03/11 00:11:03;;;;;;;;;;;;;;;-144.99;100.00;52517.41;5079948;28;19924;-75
2023/03/11 00:13:30;;;;;;;;;;;;;;;-144.99;100.00;52529.63;5089347;28;20035;-74
2023/03/11 00:15:58;;;;;;;;;;;;;;;-144.99;100.00;52503.13;5091869;27;19924;-76
2023/03/11 00:18:26;;;;;;;;;;;;;;;-144.99;100.00;52513.31;5085114;28;20366;-76
2023/03/11 00:20:53;;;;;;;;;;;;;;;-144.99;100.00;52541.84;5085208;28;20031;-75
2023/03/11 00:23:20;;;;;;;;;;;;;;;-144.99;100.00;52509.25;5077239;28;20115;-74
2023/03/11 00:25:48;;;;;;;;;;;;;;;-144.99;100.00;52509.25;5085820;28;20442;-75
2023/03/11 00:28:15;;;;;;;;;;;;;;;-144.99;100.00;52541.84;5087177;28;20435;-75
2023/03/11 00:30:43;;;;;;;;;;;;;;;-144.99;100.00;52527.59;5088790;28;20210;-74
2023/03/11 00:33:10;;;;;;;;;;;;;;;-144.99;100.00;52484.78;5078487;28;19973;-77
2023/03/11 00:35:37;;;;;;;;;;;;;;;-144.99;100.00;52545.94;5086119;28;20388;-76
2023/03/11 00:38:05;;;;;;;;;;;;;;;-144.99;100.00;52517.41;5077998;28;20298;-76
2023/03/11 00:40:32;;;;;;;;;;;;;;;-144.99;100.00;52509.25;5079619;28;19955;-76
2023/03/11 00:43:00;;;;;;;;;;;;;;;-144.99;100.00;52478.66;5079185;28;19985;-75
2023/03/11 00:45:27;;;;;;;;;;;;;;;-144.99;100.00;52505.16;5086189;28;19963;-72
2023/03/11 00:47:54;;;;;;;;;;;;;;;-144.99;100.00;52501.09;5081094;28;19929;-72
2023/03/11 00:50:22;;;;;;;;;;;;;;;-144.99;100.00;52547.97;5080046;28;19989;-73
2023/03/11 00:52:49;;;;;;;;;;;;;;;-144.99;100.00;52523.50;5074791;28;19932;-75
2023/03/11 00:55:17;;;;;;;;;;;;;;;-144.99;100.00;52517.41;5074949;28;20066;-75
2023/03/11 00:57:44;;;;;;;;;;;;;;;-144.99;100.00;52537.78;5086257;28;19928;-75
2023/03/11 01:00:15;;;;;;;;;;;;;;;-144.99;100.00;52525.56;5086449;28;19928;-70
2023/03/11 01:02:42;;;;;;;;;;;;;;;-144.99;100.00;52503.13;5084376;28;20069;-71
2023/03/11 01:05:08;;;;;;;;;;;;;;;-144.99;100.00;52521.47;5086142;28;19924;-74
2023/03/11 01:07:35;;;;;;;;;;;;;;;-144.99;100.00;52513.31;5083698;28;19935;-74
2023/03/11 01:10:02;;;;;;;;;;;;;;;-144.99;100.00;52527.59;5076997;28;20032;-72
2023/03/11 01:12:28;;;;;;;;;;;;;;;-144.99;100.00;52550.00;5083774;28;19928;-72
2023/03/11 01:14:55;;;;;;;;;;;;;;;-144.99;100.00;52537.78;5077463;28;20016;-73
2023/03/11 01:17:23;;;;;;;;;;;;;;;-144.99;100.00;52492.94;5082729;28;20009;-73
2023/03/11 01:19:49;;;;;;;;;;;;;;;-144.99;100.00;52501.09;5079042;28;20400;-72
2023/03/11 01:22:16;;;;;;;;;;;;;;;-144.99;100.00;52509.25;5076729;28;19967;-72
2023/03/11 01:24:42;;;;;;;;;;;;;;;-144.99;100.00;52547.97;5081561;28;19928;-74
2023/03/11 01:27:09;;;;;;;;;;;;;;;-144.99;100.00;52550.00;5077307;28;19981;-72
2023/03/11 01:29:36;;;;;;;;;;;;;;;-144.99;100.00;52533.69;5082821;28;20336;-72
2023/03/11 01:32:02;;;;;;;;;;;;;;;-144.99;100.00;52537.78;5077212;28;19965;-71
2023/03/11 01:34:30;;;;;;;;;;;;;;;-144.99;100.00;52550.00;5073865;28;19928;-72
2023/03/11 01:36:57;;;;;;;;;;;;;;;-144.99;100.00;52533.69;5076631;28;20029;-70
2023/03/11 01:39:23;;;;;;;;;;;;;;;-144.99;100.00;52509.25;5076484;28;19932;-76
2023/03/11 01:41:51;;;;;;;;;;;;;;;-144.99;100.00;52513.31;5084568;28;20025;-76
2023/03/11 01:44:18;;;;;;;;;;;;;;;-144.99;100.00;52541.84;5084691;28;20043;-78
2023/03/11 01:47:03;;;;;;;;;;;;;;;-144.99;100.00;52545.94;5077761;28;19951;-77
2023/03/11 01:49:31;;;;;;;;;;;;;;;-144.99;100.00;52511.28;5071460;28;19929;-75
2023/03/11 01:52:02;;;;;;;;;;;;;;;-144.99;100.00;52515.34;5083848;28;19978;-74
2023/03/11 01:54:31;;;;;;;;;;;;;;;-144.99;100.00;52545.94;5077077;28;20344;-74
2023/03/11 01:56:58;;;;;;;;;;;;;;;-144.99;100.00;52480.72;5077484;28;19932;-78
2023/03/11 01:59:26;;;;;;;;;;;;;;;-144.99;100.00;52521.47;5078306;28;20551;-76
2023/03/11 02:01:59;;;;;;;;;;;;;;;-144.99;100.00;52566.31;5077169;28;20373;-76
2023/03/11 02:04:27;;;;;;;;;;;;;;;-144.99;100.00;52545.94;5074714;28;20018;-80
2023/03/11 02:06:56;;;;;;;;;;;;;;;-144.99;100.00;52505.16;5085154;28;19971;-77
2023/03/11 02:09:25;;;;;;;;;;;;;;;-144.99;100.00;52552.03;5076936;28;19979;-78
2023/03/11 02:11:52;;;;;;;;;;;;;;;-144.99;100.00;52543.91;5075927;28;20063;-79
2023/03/11 02:14:19;;;;;;;;;;;;;;;-144.99;100.00;52576.50;5080068;28;19935;-76
2023/03/11 02:16:46;;;;;;;;;;;;;;;-144.99;100.00;52545.94;5087260;28;20009;-76
2023/03/11 02:19:18;;;;;;;;;;;;;;;-144.99;100.00;52525.56;5086179;28;20337;-76
2023/03/11 02:21:45;;;;;;;;;;;;;;;-144.99;100.00;52537.78;5087661;28;19963;-76
2023/03/11 02:24:17;;;;;;;;;;;;;;;-144.99;100.00;52509.25;5084173;28;19928;-76
2023/03/11 02:26:50;;;;;;;;;;;;;;;-144.99;100.00;52521.47;5081714;28;19968;-76
2023/03/11 02:29:18;;;;;;;;;;;;;;;-144.99;100.00;52537.78;5075149;28;20020;-76
2023/03/11 02:31:45;;;;;;;;;;;;;;;-144.99;100.00;52507.19;5079416;28;19981;-69
2023/03/11 02:34:15;;;;;;;;;;;;;;;-144.99;100.00;52505.16;4727410;28;9999901;-69
2023/03/11 02:36:44;;;;;;;;;;;;;;;-144.99;100.00;52521.47;5076461;28;21489;-66
2023/03/11 02:39:11;;;;;;;;;;;;;;;-144.99;100.00;52554.09;5075853;28;20019;-66
2023/03/11 02:41:38;;;;;;;;;;;;;;;-144.99;100.00;52533.69;5070798;28;19993;-65
2023/03/11 02:44:10;;;;;;;;;;;;;;;-144.99;100.00;52564.28;5076650;28;19982;-72
2023/03/11 02:46:38;;;;;;;;;;;;;;;-144.99;100.00;52541.84;5077811;28;19932;-72
2023/03/11 02:49:06;;;;;;;;;;;;;;;-144.99;100.00;52558.16;5080676;28;20077;-72
2023/03/11 02:51:32;;;;;;;;;;;;;;;-144.99;100.00;52505.16;5081844;28;19928;-71
2023/03/11 02:54:01;;;;;;;;;;;;;;;-144.99;100.00;52521.47;5076676;28;19983;-72
2023/03/11 02:56:28;;;;;;;;;;;;;;;-144.99;100.00;52519.44;5083161;28;20005;-72
2023/03/11 02:58:54;;;;;;;;;;;;;;;-144.99;100.00;52525.56;5077927;28;20011;-78
2023/03/11 03:01:22;;;;;;;;;;;;;;;-144.99;100.00;52525.56;5084996;28;19957;-76
2023/03/11 03:03:49;;;;;;;;;;;;;;;-144.99;100.00;52541.84;5076921;28;20389;-77
2023/03/11 03:06:16;;;;;;;;;;;;;;;-144.99;100.00;52521.47;5093475;22;19940;-67
2023/03/11 03:08:42;;;;;;;;;;;;;;;-144.99;100.00;52529.63;5024554;28;19950;-67
2023/03/11 03:11:09;;;;;;;;;;;;;;;-144.99;100.00;52509.25;5031196;28;19929;-67
2023/03/11 03:13:38;;;;;;;;;;;;;;;-144.99;100.00;52525.56;5027846;28;19991;-69
2023/03/11 03:16:05;;;;;;;;;;;;;;;-144.99;100.00;52533.69;5006403;28;20031;-70
2023/03/11 03:18:32;;;;;;;;;;;;;;;-144.99;100.00;52497.00;5009452;28;20027;-70
2023/03/11 03:21:02;;;;;;;;;;;;;;;-144.99;100.00;52533.69;5008290;28;19925;-69
2023/03/11 03:23:33;;;;;;;;;;;;;;;-144.99;100.00;52545.94;5004212;28;20168;-70
2023/03/11 03:26:00;;;;;;;;;;;;;;;-144.99;100.00;52547.97;5002795;28;19925;-69
2023/03/11 03:28:27;;;;;;;;;;;;;;;-144.99;100.00;52541.84;5009366;28;20590;-70
2023/03/11 03:30:53;;;;;;;;;;;;;;;-144.99;100.00;52545.94;5008314;28;19925;-70
2023/03/11 03:33:20;;;;;;;;;;;;;;;-144.99;100.00;52537.78;4996191;28;19973;-70
2023/03/11 03:35:48;;;;;;;;;;;;;;;-144.99;100.00;52529.63;5008273;28;19945;-69
2023/03/11 03:38:14;;;;;;;;;;;;;;;-144.99;100.00;52529.63;5005417;28;19975;-70
2023/03/11 03:40:45;;;;;;;;;;;;;;;-144.99;100.00;52537.78;5018704;28;20007;-70
2023/03/11 03:43:11;;;;;;;;;;;;;;;-144.99;100.00;52550.00;5019383;28;19926;-70
2023/03/11 03:45:38;;;;;;;;;;;;;;;-144.99;100.00;52501.09;5009196;28;19999;-70
2023/03/11 03:48:05;;;;;;;;;;;;;;;-144.99;100.00;52529.63;5012093;28;19933;-66
2023/03/11 03:50:31;;;;;;;;;;;;;;;-144.99;100.00;52525.56;5009550;28;19925;-71
2023/03/11 03:52:59;;;;;;;;;;;;;;;-144.99;100.00;52570.38;5001469;28;19930;-67
2023/03/11 03:55:26;;;;;;;;;;;;;;;-144.99;100.00;52545.94;5008652;28;20386;-66
2023/03/11 03:57:52;;;;;;;;;;;;;;;-144.99;100.00;52570.38;5011967;28;19992;-67
2023/03/11 04:00:19;;;;;;;;;;;;;;;-144.99;100.00;52505.16;5006665;28;19957;-67
2023/03/11 04:02:46;;;;;;;;;;;;;;;-144.99;100.00;52558.16;5006240;28;19972;-65
2023/03/11 04:05:12;;;;;;;;;;;;;;;-144.99;100.00;52521.47;5005076;28;19980;-65
2023/03/11 04:07:39;;;;;;;;;;;;;;;-144.99;100.00;52545.94;5002804;28;20357;-65
2023/03/11 04:10:07;;;;;;;;;;;;;;;-144.99;100.00;52545.94;5009127;28;19952;-66
2023/03/11 04:12:38;;;;;;;;;;;;;;;-144.99;100.00;52509.25;5022725;28;19933;-65
2023/03/11 04:15:05;;;;;;;;;;;;;;;-144.99;100.00;52562.25;5023799;28;19933;-64
2023/03/11 04:17:31;;;;;;;;;;;;;;;-144.99;100.00;52562.25;5028922;28;19926;-64
2023/03/11 04:20:01;;;;;;;;;;;;;;;-144.99;100.00;52517.41;5016141;28;19936;-64
2023/03/11 04:22:27;;;;;;;;;;;;;;;-144.99;100.00;52558.16;5010778;28;19972;-64
2023/03/11 04:24:54;;;;;;;;;;;;;;;-144.99;100.00;52554.09;5007469;28;19964;-65
2023/03/11 04:27:22;;;;;;;;;;;;;;;-144.99;100.00;52543.91;5005628;28;19953;-65
2023/03/11 04:29:48;;;;;;;;;;;;;;;-144.99;100.00;52562.25;5002276;28;19929;-66
2023/03/11 04:32:15;;;;;;;;;;;;;;;-144.99;100.00;52527.59;5010362;28;20350;-69
2023/03/11 04:34:41;;;;;;;;;;;;;;;-144.99;100.00;52537.78;5007223;28;20022;-69
2023/03/11 04:37:08;;;;;;;;;;;;;;;-144.99;100.00;52525.56;5013501;28;20027;-69
2023/03/11 04:39:34;;;;;;;;;;;;;;;-144.99;100.00;52600.97;5007337;28;19938;-68
2023/03/11 04:42:01;;;;;;;;;;;;;;;-144.99;100.00;52492.94;5012588;28;19960;-67
2023/03/11 04:44:29;;;;;;;;;;;;;;;-144.99;100.00;52519.44;5011867;28;19925;-69
2023/03/11 04:46:55;;;;;;;;;;;;;;;-144.99;100.00;52533.69;5004949;28;19934;-69
2023/03/11 04:49:22;;;;;;;;;;;;;;;-144.99;100.00;52501.09;5010518;28;19929;-70
2023/03/11 04:51:48;;;;;;;;;;;;;;;-144.99;100.00;52537.78;5034993;28;19948;-70
2023/03/11 04:54:15;;;;;;;;;;;;;;;-144.99;100.00;52519.44;5035326;28;19926;-70
2023/03/11 04:56:41;;;;;;;;;;;;;;;-144.99;100.00;52533.69;5027306;28;19930;-69
2023/03/11 04:59:08;;;;;;;;;;;;;;;-144.99;100.00;52545.94;5023556;28;19937;-70
2023/03/11 05:01:36;;;;;;;;;;;;;;;-144.99;100.00;52539.81;5010534;28;20344;-70
2023/03/11 05:04:02;;;;;;;;;;;;;;;-144.99;100.00;52562.25;5011924;28;19929;-70
2023/03/11 05:06:29;;;;;;;;;;;;;;;-144.99;100.00;52529.63;5004257;28;19926;-70
2023/03/11 05:08:55;;;;;;;;;;;;;;;-144.99;100.00;52533.69;5007729;28;19981;-70
2023/03/11 05:11:22;;;;;;;;;;;;;;;-144.99;100.00;52513.31;5000826;28;19987;-69
2023/03/11 05:13:48;;;;;;;;;;;;;;;-144.99;100.00;52543.91;5007098;28;19988;-69
2023/03/11 05:16:15;;;;;;;;;;;;;;;-144.99;100.00;52521.47;5009349;28;19934;-65
2023/03/11 05:18:43;;;;;;;;;;;;;;;-144.99;100.00;52552.03;5008893;28;19929;-66
2023/03/11 05:21:10;;;;;;;;;;;;;;;-144.99;100.00;52523.50;5011437;28;19929;-66
2023/03/11 05:23:36;;;;;;;;;;;;;;;-144.99;100.00;52550.00;5009196;28;19934;-66
2023/03/11 05:26:03;;;;;;;;;;;;;;;-144.99;100.00;52545.94;5004495;28;20373;-67
2023/03/11 05:28:29;;;;;;;;;;;;;;;-144.99;100.00;52562.25;5000614;28;20004;-67
2023/03/11 05:30:56;;;;;;;;;;;;;;;-144.99;100.00;52527.59;5007882;28;19980;-67
2023/03/11 05:33:23;;;;;;;;;;;;;;;-144.99;100.00;52543.91;5010630;28;19979;-68
2023/03/11 05:35:51;;;;;;;;;;;;;;;-144.99;100.00;52545.94;5007578;28;19961;-68
2023/03/11 05:38:18;;;;;;;;;;;;;;;-144.99;100.00;52554.09;5003527;28;20016;-68
2023/03/11 05:40:44;;;;;;;;;;;;;;;-144.99;100.00;52513.31;5006993;28;19965;-68
2023/03/11 05:43:11;;;;;;;;;;;;;;;-144.99;100.00;52570.38;5003203;28;20014;-68
2023/03/11 05:45:37;;;;;;;;;;;;;;;-144.99;100.00;52521.47;5010908;28;19980;-68
2023/03/11 05:48:04;;;;;;;;;;;;;;;-144.99;100.00;52550.00;5007517;28;19934;-68
2023/03/11 05:50:32;;;;;;;;;;;;;;;-144.99;100.00;52525.56;5007893;28;19926;-67
2023/03/11 05:53:00;;;;;;;;;;;;;;;-144.99;100.00;52541.84;4999402;28;19933;-68
2023/03/11 05:55:27;;;;;;;;;;;;;;;-144.99;100.00;52554.09;5001049;28;19926;-69
2023/03/11 05:57:53;;;;;;;;;;;;;;;-144.99;100.00;52570.38;5013843;28;20398;-69
2023/03/11 06:00:20;;;;;;;;;;;;;;;-144.99;100.00;52541.84;5004916;28;19985;-69
2023/03/11 06:02:47;;;;;;;;;;;;;;;-144.99;100.00;52550.00;5027733;28;19925;-69
2023/03/11 06:05:13;;;;;;;;;;;;;;;-144.99;100.00;52533.69;5022739;28;19933;-69
2023/03/11 06:07:40;;;;;;;;;;;;;;;-144.99;100.00;52558.16;5024969;28;19926;-71
2023/03/11 06:10:08;;;;;;;;;;;;;;;-144.99;100.00;52562.25;5027812;28;19951;-69
2023/03/11 06:12:36;;;;;;;;;;;;;;;-144.99;100.00;52533.69;5028325;28;19937;-69
2023/03/11 06:15:02;;;;;;;;;;;;;;;-144.99;100.00;52550.00;5009524;28;19930;-69
2023/03/11 06:17:29;;;;;;;;;;;;;;;-144.99;100.00;52554.09;5004777;28;19980;-72
2023/03/11 06:19:55;;;;;;;;;;;;;;;-144.99;100.00;52533.69;5011702;28;20444;-73
2023/03/11 06:22:22;;;;;;;;;;;;;;;-144.99;100.00;52558.16;5005963;28;19956;-71
2023/03/11 06:24:48;;;;;;;;;;;;;;;-144.99;100.00;52543.91;5004299;28;19929;-71
2023/03/11 06:27:16;;;;;;;;;;;;;;;-144.99;100.00;52545.94;5000606;28;19965;-71
2023/03/11 06:29:43;;;;;;;;;;;;;;;-144.99;100.00;52554.09;5014496;28;19929;-71
2023/03/11 06:32:09;;;;;;;;;;;;;;;-144.99;100.00;52521.47;5017413;28;19972;-72
2023/03/11 06:34:36;;;;;;;;;;;;;;;-144.99;100.00;52525.56;5012372;28;20133;-72
2023/03/11 06:37:02;;;;;;;;;;;;;;;-144.99;100.00;52529.63;5008233;28;19929;-66
2023/03/11 06:39:29;;;;;;;;;;;;;;;-144.99;100.00;52541.84;5008081;28;20382;-67
2023/03/11 06:41:56;;;;;;;;;;;;;;;-144.99;100.00;52521.47;4999792;28;19980;-67
2023/03/11 06:44:24;;;;;;;;;;;;;;;-144.99;100.00;52564.28;5001632;28;19949;-67
2023/03/11 06:46:50;;;;;;;;;;;;;;;-144.99;100.00;52537.78;5007640;28;20390;-67
2023/03/11 06:49:17;;;;;;;;;;;;;;;-144.99;100.00;52525.56;5006933;28;19925;-67
2023/03/11 06:51:43;;;;;;;;;;;;;;;-144.99;100.00;52533.69;5010180;28;20161;-67
2023/03/11 06:54:10;;;;;;;;;;;;;;;-144.99;100.00;52541.84;5010450;28;19984;-68
2023/03/11 06:56:37;;;;;;;;;;;;;;;-144.99;100.00;52509.25;5007894;28;20020;-69
2023/03/11 06:59:03;;;;;;;;;;;;;;;-144.99;100.00;52533.69;5004384;28;19976;-69
2023/03/11 07:01:32;;;;;;;;;;;;;;;-144.99;100.00;52541.84;5002296;28;19932;-68
2023/03/11 07:03:58;;;;;;;;;;;;;;;-144.99;100.00;52513.31;4999752;28;19934;-70
2023/03/11 07:06:26;;;;;;;;;;;;;;;-144.99;100.00;52476.63;5013544;28;19929;-71
2023/03/11 07:08:53;;;;;;;;;;;;;;;-144.99;100.00;52497.00;5005519;28;19926;-70
2023/03/11 07:11:21;;;;;;;;;;;;;;;-144.99;100.00;52480.72;5004201;28;20290;-70
2023/03/11 07:13:47;;;;;;;;;;;;;;;-144.99;100.00;52492.94;5015571;28;19948;-67
2023/03/11 07:16:15;;;;;;;;;;;;;;;-144.99;100.00;52513.31;5016711;28;19930;-68
2023/03/11 07:18:44;;;;;;;;;;;;;;;-144.99;100.00;52497.00;5025922;28;19933;-72
2023/03/11 07:21:12;;;;;;;;;;;;;;;-144.99;100.00;52480.72;5023981;28;19925;-70
2023/03/11 07:23:38;;;;;;;;;;;;;;;-144.99;100.00;52476.63;5014287;28;20326;-70
2023/03/11 07:26:05;;;;;;;;;;;;;;;-144.99;100.00;52509.25;5007436;28;19933;-69
2023/03/11 07:28:31;;;;;;;;;;;;;;;-144.99;99.18;52484.78;5013906;28;19932;-69
2023/03/11 07:30:58;;;;;;;;;;;;;;;-144.99;98.78;52488.84;5003065;28;19925;-69
2023/03/11 07:33:24;;;;;;;;;;;;;;;-144.99;97.69;52476.63;5016287;28;19930;-69
2023/03/11 07:35:52;;;;;;;;;;;;;;;-144.99;97.06;52480.72;5010169;28;19980;-69
2023/03/11 07:38:19;;;;;;;;;;;;;;;-144.99;96.02;52460.31;5003707;28;19980;-70
2023/03/11 07:40:48;;;;;;;;;;;;;;;-144.99;95.56;52468.47;5012738;28;20502;-70
2023/03/11 07:43:15;;;;;;;;;;;;;;;-144.99;94.44;52472.56;5014516;28;19972;-69
2023/03/11 07:45:42;;;;;;;;;;;;;;;-144.99;93.19;52460.31;5013926;28;20453;-70
2023/03/11 07:48:08;;;;;;;;;;;;;;;-144.99;92.65;52452.16;5015288;28;19929;-70
2023/03/11 07:50:40;;;;;;;;;;;;;;;-144.99;90.82;52488.84;5002063;28;19925;-70
2023/03/11 07:53:07;;;;;;;;;;;;;;;-144.99;89.46;52497.00;5003445;28;19925;-71
2023/03/11 07:55:34;;;;;;;;;;;;;;;-144.99;87.54;52482.75;5007233;28;19925;-71
2023/03/11 07:58:01;;;;;;;;;;;;;;;-144.99;86.72;52480.72;5017037;28;19926;-72
2023/03/11 08:00:27;;;;;;;;;;;;;;;-144.99;86.43;52460.31;4991621;28;19926;-71
2023/03/11 08:02:54;;;;;;;;;;;;;;;-144.99;86.92;52497.00;5015204;28;19926;-69
2023/03/11 08:05:20;;;;;;;;;;;;;;;-144.99;87.49;52472.56;5003679;28;19930;-70
2023/03/11 08:07:47;;;;;;;;;;;;;;;-144.99;86.99;52468.47;5011954;28;19925;-71
2023/03/11 08:10:15;;;;;;;;;;;;;;;-144.99;85.07;52484.78;5011036;28;19925;-71
2023/03/11 08:12:41;;;;;;;;;;;;;;;-144.99;85.12;52468.47;5001059;28;19940;-71
2023/03/11 08:15:08;;;;;;;;;;;;;;;-144.99;84.17;52464.41;5000674;28;20295;-71
2023/03/11 08:17:35;;;;;;;;;;;;;;;-144.99;83.78;52484.78;5008978;28;19926;-71
2023/03/11 08:20:03;;;;;;;;;;;;;;;-144.99;83.03;52435.88;5017570;28;19925;-70
2023/03/11 08:22:30;;;;;;;;;;;;;;;-144.99;82.70;52452.16;5014892;28;19971;-71
2023/03/11 08:24:57;;;;;;;;;;;;;;;-144.99;82.10;52486.81;5017298;28;19999;-78
2023/03/11 08:27:24;;;;;;;;;;;;;;;-144.99;82.44;52476.63;5009259;28;20013;-74
2023/03/11 08:29:51;;;;;;;;;;;;;;;-144.99;81.18;52458.28;5009603;28;19979;-78
2023/03/11 08:32:18;;;;;;;;;;;;;;;-144.99;80.01;52431.78;5006486;28;19933;-80
2023/03/11 08:34:44;;;;;;;;;;;;;;;-144.99;78.90;52452.16;5013640;28;19999;-78
2023/03/11 08:37:11;;;;;;;;;;;;;;;-144.99;78.40;52437.91;5010762;28;19929;-72
2023/03/11 08:39:37;;;;;;;;;;;;;;;-144.99;79.07;52472.56;5003412;28;20346;-79
2023/03/11 08:42:04;;;;;;;;;;;;;;;-144.99;79.00;52427.72;5009190;28;20519;-78
2023/03/11 08:44:32;;;;;;;;;;;;;;;-144.99;77.71;52452.16;5013907;28;20453;-79
2023/03/11 08:46:58;;;;;;;;;;;;;;;-144.99;77.21;52472.56;5006608;28;19934;-79
2023/03/11 08:49:25;;;;;;;;;;;;;;;-144.99;75.76;52456.25;5005357;28;19957;-79
2023/03/11 08:51:52;;;;;;;;;;;;;;;-144.99;76.21;52472.56;5021973;28;19957;-79
2023/03/11 08:54:18;;;;;;;;;;;;;;;-144.99;75.63;52423.63;5021799;28;19932;-80
2023/03/11 08:56:46;;;;;;;;;;;;;;;-144.99;75.19;52476.63;5019848;28;19964;-80
2023/03/11 08:59:13;;;;;;;;;;;;;;;-144.99;75.86;52486.81;5013047;28;19988;-79
2023/03/11 09:01:41;;;;;;;;;;;;;;;-144.99;76.38;52458.28;5026795;28;20611;-79
2023/03/11 09:04:08;;;;;;;;;;;;;;;-144.99;76.12;52460.31;5007958;28;20048;-80
2023/03/11 09:06:35;;;;;;;;;;;;;;;-144.99;74.60;52423.63;5004891;28;19981;-79
2023/03/11 09:09:01;;;;;;;;;;;;;;;-144.99;74.13;52454.22;5006543;28;19991;-79
2023/03/11 09:11:28;;;;;;;;;;;;;;;-144.99;73.33;52439.94;5003977;28;20003;-79
2023/03/11 09:13:54;;;;;;;;;;;;;;;-144.99;71.86;52421.59;5000158;28;19928;-79
2023/03/11 09:16:22;;;;;;;;;;;;;;;-144.99;70.82;52423.63;5012443;28;19987;-80
2023/03/11 09:18:50;;;;;;;;;;;;;;;-144.99;71.12;52388.97;5011087;28;19926;-79
2023/03/11 09:21:17;;;;;;;;;;;;;;;-144.99;70.57;52386.94;5018723;28;19930;-79
2023/03/11 09:26:24;;;;;;;;;;;;;;;-144.99;71.81;52431.78;5004293;28;19929;-68
2023/03/11 09:28:51;;;;;;;;;;;;;;;-144.99;71.83;52419.56;5025459;22;19930;-77
2023/03/11 09:31:18;;;;;;;;;;;;;;;-144.99;72.77;52454.22;5071760;28;19913;-75
2023/03/11 09:33:44;;;;;;;;;;;;;;;-144.99;71.88;52403.25;5063276;28;19939;-76
2023/03/11 09:36:13;;;;;;;;;;;;;;;-144.99;72.04;52415.47;5030420;28;19944;-75
2023/03/11 09:38:40;;;;;;;;;;;;;;;-144.99;71.61;52419.56;5036780;28;20355;-77
2023/03/11 09:41:13;;;;;;;;;;;;;;;-144.99;71.80;52439.94;5031447;28;19929;-76
2023/03/11 09:43:45;;;;;;;;;;;;;;;-144.99;71.83;52419.56;5029107;28;19972;-76
2023/03/11 09:46:24;;;;;;;;;;;;;;;-144.99;71.74;52407.31;5027224;28;19973;-77
2023/03/11 09:48:55;;;;;;;;;;;;;;;-144.99;69.49;52401.22;5024285;28;19979;-75
2023/03/11 09:51:27;;;;;;;;;;;;;;;-144.99;70.76;52386.94;5038639;28;19928;-76
2023/03/11 09:53:56;;;;;;;;;;;;;;;-144.99;70.64;52391.03;5029789;28;20351;-75
2023/03/11 09:56:23;;;;;;;;;;;;;;;-144.99;69.82;52409.38;5027756;28;19991;-74
2023/03/11 09:58:51;;;;;;;;;;;;;;;-144.99;70.43;52427.72;5024710;28;20288;-74
2023/03/11 10:01:21;;;;;;;;;;;;;;;-144.99;70.52;52427.72;5029903;28;19979;-74
2023/03/11 10:03:48;;;;;;;;;;;;;;;-144.99;70.60;52395.09;5026769;28;19987;-74
2023/03/11 10:06:16;;;;;;;;;;;;;;;-144.99;71.12;52464.41;5030513;28;19968;-75
2023/03/11 10:08:46;;;;;;;;;;;;;;;-144.99;70.52;52399.19;5027749;28;19965;-73
2023/03/11 10:11:19;;;;;;;;;;;;;;;-144.99;70.60;52439.94;5026981;28;19925;-76
2023/03/11 10:13:52;;;;;;;;;;;;;;;-144.99;68.94;52370.63;5041231;28;19920;-74
2023/03/11 10:16:23;;;;;;;;;;;;;;;-144.99;67.87;52372.69;5033330;28;19983;-73
2023/03/11 10:18:53;;;;;;;;;;;;;;;-144.99;67.63;52374.72;5031166;28;20030;-75
2023/03/11 10:21:25;;;;;;;;;;;;;;;-144.99;67.71;52362.50;5022600;28;20671;-75
2023/03/11 10:24:00;;;;;;;;;;;;;;;-144.99;67.86;52362.50;5028990;28;19937;-76
2023/03/11 10:26:31;;;;;;;;;;;;;;;-144.99;67.29;52350.25;5029525;28;19937;-75
2023/03/11 10:29:00;;;;;;;;;;;;;;;-144.99;67.84;52350.25;5025339;28;20339;-75
2023/03/11 10:31:28;;;;;;;;;;;;;;;-144.99;69.80;52399.19;5028802;28;19999;-76
2023/03/11 10:33:58;;;;;;;;;;;;;;;-144.99;70.14;52368.59;5027989;28;19987;-76
2023/03/11 10:36:26;;;;;;;;;;;;;;;-144.99;69.13;52378.78;5028396;28;20402;-75
2023/03/11 10:38:53;;;;;;;;;;;;;;;-144.99;69.20;52321.72;5029932;28;19936;-76
2023/03/11 10:41:23;;;;;;;;;;;;;;;-144.99;68.69;52346.19;5036070;28;19959;-74
2023/03/11 10:43:51;;;;;;;;;;;;;;;-144.99;67.90;52338.03;5039488;28;19929;-76
2023/03/11 10:46:20;;;;;;;;;;;;;;;-144.99;68.72;52309.50;5035861;28;20162;-75
2023/03/11 10:48:46;;;;;;;;;;;;;;;-144.99;69.09;52264.66;5030768;28;20298;-77
2023/03/11 10:51:14;;;;;;;;;;;;;;;-144.99;68.13;52293.19;5030534;28;19964;-77
2023/03/11 10:53:44;;;;;;;;;;;;;;;-144.99;66.55;52280.97;5029751;28;19964;-77
2023/03/11 10:56:24;;;;;;;;;;;;;;;-144.99;65.04;52252.44;5057541;28;19913;-78
2023/03/11 10:58:52;;;;;;;;;;;;;;;-144.99;65.10;52264.66;5034529;28;20341;-77
2023/03/11 11:01:20;;;;;;;;;;;;;;;-144.99;65.45;52254.47;5034675;28;19999;-76
2023/03/11 11:03:48;;;;;;;;;;;;;;;-144.99;65.12;52252.44;5032978;28;19926;-76
2023/03/11 11:06:22;;;;;;;;;;;;;;;-144.99;64.12;52225.94;5032481;28;20040;-76
2023/03/11 11:08:49;;;;;;;;;;;;;;;-144.99;63.21;52211.66;5031863;28;20153;-77
2023/03/11 11:11:21;;;;;;;;;;;;;;;-144.99;62.36;52215.75;5043436;28;20342;-77
2023/03/11 11:13:57;;;;;;;;;;;;;;;-144.99;63.10;52256.50;5051076;28;19925;-74
2023/03/11 11:16:24;;;;;;;;;;;;;;;-144.99;62.38;52203.50;5034273;28;19991;-76
2023/03/11 11:18:54;;;;;;;;;;;;;;;-144.99;61.93;52209.63;5030598;28;19972;-76
2023/03/11 11:21:28;;;;;;;;;;;;;;;-144.99;62.20;52199.44;5028497;28;19929;-74
2023/03/11 11:24:02;;;;;;;;;;;;;;;-144.99;60.32;52199.44;5028706;28;19925;-75
2023/03/11 11:26:29;;;;;;;;;;;;;;;-144.99;59.69;52170.91;5032166;28;20018;-76
2023/03/11 11:29:07;;;;;;;;;;;;;;;-144.99;61.20;52244.28;5033757;28;19971;-76
2023/03/11 11:31:33;;;;;;;;;;;;;;;-144.99;61.27;52215.75;5031936;28;20024;-77
2023/03/11 11:34:00;;;;;;;;;;;;;;;-144.99;60.30;52195.34;5033783;28;19968;-76
2023/03/11 11:36:28;;;;;;;;;;;;;;;-144.99;60.84;52191.28;5029815;28;19960;-76
2023/03/11 11:38:55;;;;;;;;;;;;;;;-144.99;60.23;52417.53;5049924;28;19984;-76
2023/03/11 11:41:23;;;;;;;;;;;;;;;-144.99;61.86;52336.00;5028604;28;19958;-75
2023/03/11 11:43:51;;;;;;;;;;;;;;;-144.99;62.86;52423.63;5029454;28;19979;-75
2023/03/11 11:46:21;;;;;;;;;;;;;;;-144.99;64.53;52480.72;5031925;28;19925;-76
2023/03/11 11:48:50;;;;;;;;;;;;;;;-144.99;65.51;52448.09;5042177;28;19913;-76
2023/03/11 11:51:20;;;;;;;;;;;;;;;-144.99;66.25;52325.81;5061086;28;20415;-76
2023/03/11 11:53:50;;;;;;;;;;;;;;;-144.99;65.00;52435.88;5024537;28;20295;-76
2023/03/11 11:56:16;;;;;;;;;;;;;;;-144.99;64.61;52448.09;5028998;28;19951;-77
2023/03/11 11:58:43;;;;;;;;;;;;;;;-144.99;66.93;52299.31;5031190;28;19982;-76
2023/03/11 12:01:14;;;;;;;;;;;;;;;-144.99;65.65;52293.19;5032644;28;19975;-76
2023/03/11 12:03:59;;;;;;;;;;;;;;;-144.99;64.89;52468.47;5032878;28;20034;-76
2023/03/11 12:06:29;;;;;;;;;;;;;;;-144.99;63.32;52268.72;5031874;28;20024;-75
2023/03/11 12:09:04;;;;;;;;;;;;;;;-144.99;64.12;52315.59;5029801;28;19999;-75
2023/03/11 12:11:35;;;;;;;;;;;;;;;-144.99;63.71;52448.09;5033204;28;19929;-76
2023/03/11 12:14:06;;;;;;;;;;;;;;;-144.99;63.17;52252.44;5037035;28;20317;-76
2023/03/11 12:16:40;;;;;;;;;;;;;;;-144.99;61.84;52215.75;5031674;28;20052;-76
2023/03/11 12:19:17;;;;;;;;;;;;;;;-144.99;60.79;52236.13;5042474;28;19953;-77
2023/03/11 12:22:01;;;;;;;;;;;;;;;-144.99;60.43;52370.63;5035916;28;20417;-76
2023/03/11 12:24:37;;;;;;;;;;;;;;;-144.99;62.93;52287.06;5024235;28;19966;-76
2023/03/11 12:27:05;;;;;;;;;;;;;;;-144.99;62.29;52227.97;5031270;28;19976;-75